sensor_id;sensor_type;location;lat;lon;timestamp;P1;durP1;ratioP1;P2;durP2;ratioP2
20997;SDS011;10657;51.276;6.390;2022-09-11T00:00:50;18.95;;;13.05;;
20997;SDS011;10657;51.276;6.390;2022-09-11T00:03:21;19.00;;;12.57;;
20997;SDS011;10657;51.276;6.390;2022-09-11T00:05:50;20.13;;;13.25;;
20997;SDS011;10657;51.276;6.390;2022-09-11T00:08:18;20.13;;;12.98;;
20997;SDS011;10657;51.276;6.390;2022-09-11T00:10:47;19.42;;;12.40;;
20997;SDS011;10657;51.276;6.390;2022-09-11T00:13:16;16.60;;;13.13;;
20997;SDS011;10657;51.276;6.390;2022-09-11T00:15:46;22.02;;;13.07;;
20997;SDS011;10657;51.276;6.390;2022-09-11T00:18:14;18.75;;;12.98;;
20997;SDS011;10657;51.276;6.390;2022-09-11T00:20:49;21.30;;;13.45;;
20997;SDS011;10657;51.276;6.390;2022-09-11T00:23:17;18.75;;;13.30;;
20997;SDS011;10657;51.276;6.390;2022-09-11T00:25:45;18.63;;;13.10;;
20997;SDS011;10657;51.276;6.390;2022-09-11T00:28:13;22.10;;;13.07;;
20997;SDS011;10657;51.276;6.390;2022-09-11T00:30:44;16.20;;;12.52;;
20997;SDS011;10657;51.276;6.390;2022-09-11T00:33:11;18.92;;;12.23;;
20997;SDS011;10657;51.276;6.390;2022-09-11T00:35:39;18.77;;;12.50;;
20997;SDS011;10657;51.276;6.390;2022-09-11T00:38:07;18.48;;;12.68;;
20997;SDS011;10657;51.276;6.390;2022-09-11T00:40:48;15.77;;;12.18;;
20997;SDS011;10657;51.276;6.390;2022-09-11T00:43:15;18.25;;;12.95;;
20997;SDS011;10657;51.276;6.390;2022-09-11T00:45:43;20.85;;;12.68;;
20997;SDS011;10657;51.276;6.390;2022-09-11T00:48:12;16.92;;;12.50;;
20997;SDS011;10657;51.276;6.390;2022-09-11T00:50:40;19.50;;;12.73;;
20997;SDS011;10657;51.276;6.390;2022-09-11T00:53:08;22.27;;;14.32;;
20997;SDS011;10657;51.276;6.390;2022-09-11T00:55:41;20.67;;;14.23;;
20997;SDS011;10657;51.276;6.390;2022-09-11T00:58:11;22.80;;;14.10;;
20997;SDS011;10657;51.276;6.390;2022-09-11T01:00:38;19.58;;;13.77;;
20997;SDS011;10657;51.276;6.390;2022-09-11T01:03:08;20.73;;;13.88;;
20997;SDS011;10657;51.276;6.390;2022-09-11T01:05:35;20.13;;;13.55;;
20997;SDS011;10657;51.276;6.390;2022-09-11T01:08:03;19.13;;;14.13;;
20997;SDS011;10657;51.276;6.390;2022-09-11T01:10:35;20.13;;;14.65;;
20997;SDS011;10657;51.276;6.390;2022-09-11T01:15:37;22.90;;;15.70;;
20997;SDS011;10657;51.276;6.390;2022-09-11T01:18:14;24.27;;;16.60;;
20997;SDS011;10657;51.276;6.390;2022-09-11T01:25:57;30.25;;;18.13;;
20997;SDS011;10657;51.276;6.390;2022-09-11T01:28:37;25.90;;;18.77;;
20997;SDS011;10657;51.276;6.390;2022-09-11T01:31:06;26.48;;;19.38;;
20997;SDS011;10657;51.276;6.390;2022-09-11T01:33:49;27.95;;;19.80;;
20997;SDS011;10657;51.276;6.390;2022-09-11T01:36:26;22.90;;;16.45;;
20997;SDS011;10657;51.276;6.390;2022-09-11T01:38:55;24.58;;;18.15;;
20997;SDS011;10657;51.276;6.390;2022-09-11T01:44:12;27.90;;;18.23;;
20997;SDS011;10657;51.276;6.390;2022-09-11T01:46:45;25.80;;;17.67;;
20997;SDS011;10657;51.276;6.390;2022-09-11T01:51:45;26.48;;;18.85;;
20997;SDS011;10657;51.276;6.390;2022-09-11T01:54:16;28.00;;;17.67;;
20997;SDS011;10657;51.276;6.390;2022-09-11T01:56:49;30.10;;;17.58;;
20997;SDS011;10657;51.276;6.390;2022-09-11T01:59:19;28.52;;;19.83;;
20997;SDS011;10657;51.276;6.390;2022-09-11T02:01:52;25.85;;;18.05;;
20997;SDS011;10657;51.276;6.390;2022-09-11T02:04:21;28.65;;;17.50;;
20997;SDS011;10657;51.276;6.390;2022-09-11T02:07:33;27.27;;;18.83;;
20997;SDS011;10657;51.276;6.390;2022-09-11T02:09:48;25.88;;;18.13;;
20997;SDS011;10657;51.276;6.390;2022-09-11T02:12:17;29.17;;;19.13;;
20997;SDS011;10657;51.276;6.390;2022-09-11T02:14:46;26.70;;;19.48;;
20997;SDS011;10657;51.276;6.390;2022-09-11T02:17:16;29.58;;;20.23;;
20997;SDS011;10657;51.276;6.390;2022-09-11T02:19:43;29.27;;;19.42;;
20997;SDS011;10657;51.276;6.390;2022-09-11T02:22:10;26.25;;;18.85;;
20997;SDS011;10657;51.276;6.390;2022-09-11T02:24:38;28.52;;;18.73;;
20997;SDS011;10657;51.276;6.390;2022-09-11T02:27:06;30.48;;;20.58;;
20997;SDS011;10657;51.276;6.390;2022-09-11T02:29:35;27.00;;;18.15;;
20997;SDS011;10657;51.276;6.390;2022-09-11T02:32:04;26.42;;;18.55;;
20997;SDS011;10657;51.276;6.390;2022-09-11T02:34:33;30.67;;;19.30;;
20997;SDS011;10657;51.276;6.390;2022-09-11T02:39:34;30.55;;;19.20;;
20997;SDS011;10657;51.276;6.390;2022-09-11T02:42:09;30.00;;;21.52;;
20997;SDS011;10657;51.276;6.390;2022-09-11T02:44:44;33.30;;;20.98;;
20997;SDS011;10657;51.276;6.390;2022-09-11T02:57:46;25.77;;;19.17;;
20997;SDS011;10657;51.276;6.390;2022-09-11T03:00:15;31.92;;;20.75;;
20997;SDS011;10657;51.276;6.390;2022-09-11T03:02:42;27.90;;;19.55;;
20997;SDS011;10657;51.276;6.390;2022-09-11T03:05:10;29.10;;;20.85;;
20997;SDS011;10657;51.276;6.390;2022-09-11T03:07:38;29.85;;;20.67;;
20997;SDS011;10657;51.276;6.390;2022-09-11T03:10:05;33.28;;;20.98;;
20997;SDS011;10657;51.276;6.390;2022-09-11T03:12:33;30.80;;;20.85;;
20997;SDS011;10657;51.276;6.390;2022-09-11T03:15:01;29.27;;;20.17;;
20997;SDS011;10657;51.276;6.390;2022-09-11T03:17:28;30.48;;;22.02;;
20997;SDS011;10657;51.276;6.390;2022-09-11T03:19:55;32.47;;;22.58;;
20997;SDS011;10657;51.276;6.390;2022-09-11T03:22:23;29.75;;;21.80;;
20997;SDS011;10657;51.276;6.390;2022-09-11T03:24:50;29.65;;;21.20;;
20997;SDS011;10657;51.276;6.390;2022-09-11T03:27:17;30.77;;;21.48;;
20997;SDS011;10657;51.276;6.390;2022-09-11T03:29:44;29.45;;;20.35;;
20997;SDS011;10657;51.276;6.390;2022-09-11T03:32:11;29.60;;;20.65;;
20997;SDS011;10657;51.276;6.390;2022-09-11T03:34:38;32.80;;;21.50;;
20997;SDS011;10657;51.276;6.390;2022-09-11T03:37:05;27.50;;;20.10;;
20997;SDS011;10657;51.276;6.390;2022-09-11T03:39:32;31.98;;;21.35;;
20997;SDS011;10657;51.276;6.390;2022-09-11T03:41:59;32.13;;;22.88;;
20997;SDS011;10657;51.276;6.390;2022-09-11T03:44:26;29.88;;;21.92;;
20997;SDS011;10657;51.276;6.390;2022-09-11T03:46:53;32.05;;;23.27;;
20997;SDS011;10657;51.276;6.390;2022-09-11T03:49:21;35.15;;;23.20;;
20997;SDS011;10657;51.276;6.390;2022-09-11T03:51:48;33.20;;;23.67;;
20997;SDS011;10657;51.276;6.390;2022-09-11T03:54:15;35.05;;;24.38;;
20997;SDS011;10657;51.276;6.390;2022-09-11T03:56:42;33.83;;;23.30;;
20997;SDS011;10657;51.276;6.390;2022-09-11T03:59:09;36.40;;;25.42;;
20997;SDS011;10657;51.276;6.390;2022-09-11T04:01:37;36.38;;;24.70;;
20997;SDS011;10657;51.276;6.390;2022-09-11T04:04:04;36.95;;;25.20;;
20997;SDS011;10657;51.276;6.390;2022-09-11T04:06:31;34.95;;;23.75;;
20997;SDS011;10657;51.276;6.390;2022-09-11T04:08:58;34.72;;;23.25;;
20997;SDS011;10657;51.276;6.390;2022-09-11T04:11:26;31.90;;;22.08;;
20997;SDS011;10657;51.276;6.390;2022-09-11T04:13:53;36.03;;;22.95;;
20997;SDS011;10657;51.276;6.390;2022-09-11T04:16:20;33.45;;;22.50;;
20997;SDS011;10657;51.276;6.390;2022-09-11T04:18:47;30.27;;;21.48;;
20997;SDS011;10657;51.276;6.390;2022-09-11T04:21:15;36.28;;;24.00;;
20997;SDS011;10657;51.276;6.390;2022-09-11T04:23:43;32.63;;;22.90;;
20997;SDS011;10657;51.276;6.390;2022-09-11T04:26:11;32.63;;;22.88;;
20997;SDS011;10657;51.276;6.390;2022-09-11T04:28:41;32.47;;;22.05;;
20997;SDS011;10657;51.276;6.390;2022-09-11T04:31:08;32.33;;;24.00;;
20997;SDS011;10657;51.276;6.390;2022-09-11T04:33:35;30.70;;;22.13;;
20997;SDS011;10657;51.276;6.390;2022-09-11T04:36:08;33.08;;;22.40;;
20997;SDS011;10657;51.276;6.390;2022-09-11T04:38:36;34.25;;;22.60;;
20997;SDS011;10657;51.276;6.390;2022-09-11T04:41:04;30.65;;;21.90;;
20997;SDS011;10657;51.276;6.390;2022-09-11T04:43:33;33.00;;;22.00;;
20997;SDS011;10657;51.276;6.390;2022-09-11T04:46:01;30.92;;;22.05;;
20997;SDS011;10657;51.276;6.390;2022-09-11T04:48:29;30.65;;;21.40;;
20997;SDS011;10657;51.276;6.390;2022-09-11T04:53:26;34.72;;;23.35;;
20997;SDS011;10657;51.276;6.390;2022-09-11T04:56:00;35.03;;;23.38;;
20997;SDS011;10657;51.276;6.390;2022-09-11T04:58:28;33.33;;;21.88;;
20997;SDS011;10657;51.276;6.390;2022-09-11T05:00:55;29.67;;;20.75;;
20997;SDS011;10657;51.276;6.390;2022-09-11T05:03:22;31.17;;;20.95;;
20997;SDS011;10657;51.276;6.390;2022-09-11T05:05:49;29.92;;;20.48;;
20997;SDS011;10657;51.276;6.390;2022-09-11T05:08:16;31.73;;;21.95;;
20997;SDS011;10657;51.276;6.390;2022-09-11T05:10:44;26.42;;;18.73;;
20997;SDS011;10657;51.276;6.390;2022-09-11T05:13:12;26.77;;;18.98;;
20997;SDS011;10657;51.276;6.390;2022-09-11T05:15:39;29.05;;;20.98;;
20997;SDS011;10657;51.276;6.390;2022-09-11T05:18:06;28.85;;;20.45;;
20997;SDS011;10657;51.276;6.390;2022-09-11T05:20:33;30.45;;;20.80;;
20997;SDS011;10657;51.276;6.390;2022-09-11T05:23:00;32.20;;;21.70;;
20997;SDS011;10657;51.276;6.390;2022-09-11T05:25:28;27.13;;;19.95;;
20997;SDS011;10657;51.276;6.390;2022-09-11T05:27:56;27.25;;;19.98;;
20997;SDS011;10657;51.276;6.390;2022-09-11T05:30:23;28.52;;;19.77;;
20997;SDS011;10657;51.276;6.390;2022-09-11T05:32:52;25.58;;;18.77;;
20997;SDS011;10657;51.276;6.390;2022-09-11T05:35:22;26.52;;;19.13;;
20997;SDS011;10657;51.276;6.390;2022-09-11T05:37:54;25.48;;;18.02;;
20997;SDS011;10657;51.276;6.390;2022-09-11T05:40:21;27.92;;;18.58;;
20997;SDS011;10657;51.276;6.390;2022-09-11T05:42:48;26.98;;;18.85;;
20997;SDS011;10657;51.276;6.390;2022-09-11T05:45:15;27.27;;;19.83;;
20997;SDS011;10657;51.276;6.390;2022-09-11T05:47:42;29.45;;;20.50;;
20997;SDS011;10657;51.276;6.390;2022-09-11T05:50:10;26.60;;;18.08;;
20997;SDS011;10657;51.276;6.390;2022-09-11T05:52:40;27.65;;;19.08;;
20997;SDS011;10657;51.276;6.390;2022-09-11T05:55:08;30.30;;;20.55;;
20997;SDS011;10657;51.276;6.390;2022-09-11T05:57:35;27.35;;;19.10;;
20997;SDS011;10657;51.276;6.390;2022-09-11T06:00:03;26.77;;;19.05;;
20997;SDS011;10657;51.276;6.390;2022-09-11T06:02:30;29.95;;;19.88;;
20997;SDS011;10657;51.276;6.390;2022-09-11T06:04:57;30.38;;;19.77;;
20997;SDS011;10657;51.276;6.390;2022-09-11T06:07:24;26.50;;;19.30;;
20997;SDS011;10657;51.276;6.390;2022-09-11T06:09:52;27.30;;;18.38;;
20997;SDS011;10657;51.276;6.390;2022-09-11T06:12:19;24.77;;;17.95;;
20997;SDS011;10657;51.276;6.390;2022-09-11T06:14:46;25.67;;;18.45;;
20997;SDS011;10657;51.276;6.390;2022-09-11T06:17:13;26.35;;;18.92;;
20997;SDS011;10657;51.276;6.390;2022-09-11T06:19:40;25.88;;;18.08;;
20997;SDS011;10657;51.276;6.390;2022-09-11T06:22:07;27.45;;;19.33;;
20997;SDS011;10657;51.276;6.390;2022-09-11T06:24:34;25.42;;;18.05;;
20997;SDS011;10657;51.276;6.390;2022-09-11T06:27:01;25.90;;;18.42;;
20997;SDS011;10657;51.276;6.390;2022-09-11T06:29:28;28.13;;;19.80;;
20997;SDS011;10657;51.276;6.390;2022-09-11T06:31:59;26.25;;;19.00;;
20997;SDS011;10657;51.276;6.390;2022-09-11T06:34:26;23.50;;;17.10;;
20997;SDS011;10657;51.276;6.390;2022-09-11T06:36:53;24.42;;;18.15;;
20997;SDS011;10657;51.276;6.390;2022-09-11T06:39:20;25.70;;;16.95;;
20997;SDS011;10657;51.276;6.390;2022-09-11T06:41:48;25.35;;;18.35;;
20997;SDS011;10657;51.276;6.390;2022-09-11T06:44:15;24.80;;;17.20;;
20997;SDS011;10657;51.276;6.390;2022-09-11T06:46:42;24.05;;;17.77;;
20997;SDS011;10657;51.276;6.390;2022-09-11T06:49:10;25.27;;;17.92;;
20997;SDS011;10657;51.276;6.390;2022-09-11T06:51:37;25.92;;;18.55;;
20997;SDS011;10657;51.276;6.390;2022-09-11T06:54:05;24.92;;;18.45;;
20997;SDS011;10657;51.276;6.390;2022-09-11T06:56:32;23.35;;;17.58;;
20997;SDS011;10657;51.276;6.390;2022-09-11T06:58:59;24.42;;;19.00;;
20997;SDS011;10657;51.276;6.390;2022-09-11T07:01:27;23.02;;;17.75;;
20997;SDS011;10657;51.276;6.390;2022-09-11T07:03:54;23.45;;;16.83;;
20997;SDS011;10657;51.276;6.390;2022-09-11T07:06:22;23.67;;;18.10;;
20997;SDS011;10657;51.276;6.390;2022-09-11T07:08:50;25.42;;;17.83;;
20997;SDS011;10657;51.276;6.390;2022-09-11T07:11:18;20.77;;;15.93;;
20997;SDS011;10657;51.276;6.390;2022-09-11T07:13:45;23.42;;;18.77;;
20997;SDS011;10657;51.276;6.390;2022-09-11T07:16:12;20.25;;;15.82;;
20997;SDS011;10657;51.276;6.390;2022-09-11T07:18:41;22.92;;;17.65;;
20997;SDS011;10657;51.276;6.390;2022-09-11T07:21:12;21.55;;;16.52;;
20997;SDS011;10657;51.276;6.390;2022-09-11T07:23:39;21.27;;;17.48;;
20997;SDS011;10657;51.276;6.390;2022-09-11T07:26:08;20.15;;;15.48;;
20997;SDS011;10657;51.276;6.390;2022-09-11T07:28:36;20.23;;;14.60;;
20997;SDS011;10657;51.276;6.390;2022-09-11T07:31:04;19.88;;;14.30;;
20997;SDS011;10657;51.276;6.390;2022-09-11T07:33:31;20.20;;;16.02;;
20997;SDS011;10657;51.276;6.390;2022-09-11T07:35:58;19.85;;;14.50;;
20997;SDS011;10657;51.276;6.390;2022-09-11T07:38:27;22.58;;;16.52;;
20997;SDS011;10657;51.276;6.390;2022-09-11T07:40:55;22.00;;;16.38;;
20997;SDS011;10657;51.276;6.390;2022-09-11T07:43:23;21.92;;;15.25;;
20997;SDS011;10657;51.276;6.390;2022-09-11T07:45:52;21.80;;;15.75;;
20997;SDS011;10657;51.276;6.390;2022-09-11T07:48:21;22.17;;;17.55;;
20997;SDS011;10657;51.276;6.390;2022-09-11T07:50:55;21.90;;;15.57;;
20997;SDS011;10657;51.276;6.390;2022-09-11T07:53:23;19.83;;;15.20;;
20997;SDS011;10657;51.276;6.390;2022-09-11T07:55:50;21.50;;;15.70;;
20997;SDS011;10657;51.276;6.390;2022-09-11T07:58:17;22.63;;;16.95;;
20997;SDS011;10657;51.276;6.390;2022-09-11T08:00:45;22.35;;;15.90;;
20997;SDS011;10657;51.276;6.390;2022-09-11T08:03:12;23.25;;;14.98;;
20997;SDS011;10657;51.276;6.390;2022-09-11T08:05:39;24.30;;;16.52;;
20997;SDS011;10657;51.276;6.390;2022-09-11T08:08:07;22.98;;;16.00;;
20997;SDS011;10657;51.276;6.390;2022-09-11T08:10:35;22.85;;;15.50;;
20997;SDS011;10657;51.276;6.390;2022-09-11T08:13:05;21.52;;;15.75;;
20997;SDS011;10657;51.276;6.390;2022-09-11T08:15:34;25.95;;;17.25;;
20997;SDS011;10657;51.276;6.390;2022-09-11T08:18:02;23.40;;;17.38;;
20997;SDS011;10657;51.276;6.390;2022-09-11T08:20:29;27.38;;;17.58;;
20997;SDS011;10657;51.276;6.390;2022-09-11T08:22:57;28.85;;;18.65;;
20997;SDS011;10657;51.276;6.390;2022-09-11T08:25:24;25.27;;;17.30;;
20997;SDS011;10657;51.276;6.390;2022-09-11T08:27:53;25.58;;;17.10;;
20997;SDS011;10657;51.276;6.390;2022-09-11T08:30:20;26.58;;;18.17;;
20997;SDS011;10657;51.276;6.390;2022-09-11T08:32:47;24.63;;;16.95;;
20997;SDS011;10657;51.276;6.390;2022-09-11T08:35:14;25.35;;;17.30;;
20997;SDS011;10657;51.276;6.390;2022-09-11T08:37:41;30.23;;;20.05;;
20997;SDS011;10657;51.276;6.390;2022-09-11T08:40:08;26.65;;;18.42;;
20997;SDS011;10657;51.276;6.390;2022-09-11T08:42:38;27.15;;;18.25;;
20997;SDS011;10657;51.276;6.390;2022-09-11T08:45:09;28.08;;;19.77;;
20997;SDS011;10657;51.276;6.390;2022-09-11T08:47:39;28.10;;;18.40;;
20997;SDS011;10657;51.276;6.390;2022-09-11T08:50:11;25.63;;;17.42;;
20997;SDS011;10657;51.276;6.390;2022-09-11T08:52:41;27.45;;;19.58;;
20997;SDS011;10657;51.276;6.390;2022-09-11T08:55:12;29.45;;;19.55;;
20997;SDS011;10657;51.276;6.390;2022-09-11T09:10:30;26.95;;;18.33;;
20997;SDS011;10657;51.276;6.390;2022-09-11T09:18:30;33.25;;;18.98;;
20997;SDS011;10657;51.276;6.390;2022-09-11T09:21:03;29.90;;;18.88;;
20997;SDS011;10657;51.276;6.390;2022-09-11T09:23:34;32.25;;;20.73;;
20997;SDS011;10657;51.276;6.390;2022-09-11T09:26:03;29.70;;;19.77;;
20997;SDS011;10657;51.276;6.390;2022-09-11T09:28:32;28.33;;;19.50;;
20997;SDS011;10657;51.276;6.390;2022-09-11T09:31:04;27.45;;;18.00;;
20997;SDS011;10657;51.276;6.390;2022-09-11T09:33:33;30.98;;;19.45;;
20997;SDS011;10657;51.276;6.390;2022-09-11T09:38:41;27.80;;;18.20;;
20997;SDS011;10657;51.276;6.390;2022-09-11T09:46:13;33.25;;;20.55;;
20997;SDS011;10657;51.276;6.390;2022-09-11T09:48:42;30.20;;;18.80;;
20997;SDS011;10657;51.276;6.390;2022-09-11T09:51:11;33.08;;;20.40;;
20997;SDS011;10657;51.276;6.390;2022-09-11T09:53:47;29.83;;;19.40;;
20997;SDS011;10657;51.276;6.390;2022-09-11T09:56:15;30.17;;;20.80;;
20997;SDS011;10657;51.276;6.390;2022-09-11T09:58:56;29.20;;;18.38;;
20997;SDS011;10657;51.276;6.390;2022-09-11T10:01:41;29.90;;;19.92;;
20997;SDS011;10657;51.276;6.390;2022-09-11T10:06:37;33.78;;;19.23;;
20997;SDS011;10657;51.276;6.390;2022-09-11T10:09:04;32.53;;;19.17;;
20997;SDS011;10657;51.276;6.390;2022-09-11T10:11:31;29.02;;;17.90;;
20997;SDS011;10657;51.276;6.390;2022-09-11T10:13:58;27.02;;;17.25;;
20997;SDS011;10657;51.276;6.390;2022-09-11T10:16:26;29.92;;;19.13;;
20997;SDS011;10657;51.276;6.390;2022-09-11T10:18:54;28.92;;;18.67;;
20997;SDS011;10657;51.276;6.390;2022-09-11T10:21:25;28.20;;;16.27;;
20997;SDS011;10657;51.276;6.390;2022-09-11T10:26:47;29.02;;;17.60;;
20997;SDS011;10657;51.276;6.390;2022-09-11T10:29:23;26.55;;;16.98;;
20997;SDS011;10657;51.276;6.390;2022-09-11T10:31:52;28.80;;;18.10;;
20997;SDS011;10657;51.276;6.390;2022-09-11T10:34:20;29.58;;;18.17;;
20997;SDS011;10657;51.276;6.390;2022-09-11T10:39:33;29.35;;;19.00;;
20997;SDS011;10657;51.276;6.390;2022-09-11T10:44:35;30.70;;;18.60;;
20997;SDS011;10657;51.276;6.390;2022-09-11T10:47:03;30.38;;;18.80;;
20997;SDS011;10657;51.276;6.390;2022-09-11T10:49:31;28.33;;;18.58;;
20997;SDS011;10657;51.276;6.390;2022-09-11T10:52:00;30.52;;;17.55;;
20997;SDS011;10657;51.276;6.390;2022-09-11T10:54:30;29.88;;;18.75;;
20997;SDS011;10657;51.276;6.390;2022-09-11T10:59:43;30.67;;;18.52;;
20997;SDS011;10657;51.276;6.390;2022-09-11T11:02:20;17.30;;;10.80;;
20997;SDS011;10657;51.276;6.390;2022-09-11T11:04:54;11.00;;;5.72;;
20997;SDS011;10657;51.276;6.390;2022-09-11T11:12:47;20.02;;;11.15;;
20997;SDS011;10657;51.276;6.390;2022-09-11T11:15:21;16.17;;;9.07;;
20997;SDS011;10657;51.276;6.390;2022-09-11T11:31:10;20.05;;;12.35;;
20997;SDS011;10657;51.276;6.390;2022-09-11T11:36:13;25.80;;;16.15;;
20997;SDS011;10657;51.276;6.390;2022-09-11T11:38:53;22.75;;;13.52;;
20997;SDS011;10657;51.276;6.390;2022-09-11T11:41:26;21.30;;;12.68;;
20997;SDS011;10657;51.276;6.390;2022-09-11T11:43:55;21.17;;;11.57;;
20997;SDS011;10657;51.276;6.390;2022-09-11T11:46:26;27.58;;;15.55;;
20997;SDS011;10657;51.276;6.390;2022-09-11T11:48:58;24.35;;;14.15;;
20997;SDS011;10657;51.276;6.390;2022-09-11T11:51:29;28.58;;;17.88;;
20997;SDS011;10657;51.276;6.390;2022-09-11T11:54:00;24.92;;;16.20;;
20997;SDS011;10657;51.276;6.390;2022-09-11T11:59:01;27.67;;;16.77;;
20997;SDS011;10657;51.276;6.390;2022-09-11T12:01:43;25.92;;;15.38;;
20997;SDS011;10657;51.276;6.390;2022-09-11T12:05:15;25.98;;;16.40;;
20997;SDS011;10657;51.276;6.390;2022-09-11T12:07:13;30.40;;;20.13;;
20997;SDS011;10657;51.276;6.390;2022-09-11T12:09:45;25.25;;;14.05;;
20997;SDS011;10657;51.276;6.390;2022-09-11T12:12:14;27.48;;;18.70;;
20997;SDS011;10657;51.276;6.390;2022-09-11T12:14:49;28.15;;;16.98;;
20997;SDS011;10657;51.276;6.390;2022-09-11T12:25:07;14.68;;;8.35;;
20997;SDS011;10657;51.276;6.390;2022-09-11T12:27:53;8.48;;;4.55;;
20997;SDS011;10657;51.276;6.390;2022-09-11T12:36:07;23.90;;;14.75;;
20997;SDS011;10657;51.276;6.390;2022-09-11T12:38:40;15.68;;;8.98;;
20997;SDS011;10657;51.276;6.390;2022-09-11T12:41:10;25.77;;;17.27;;
20997;SDS011;10657;51.276;6.390;2022-09-11T12:51:49;13.82;;;8.15;;
20997;SDS011;10657;51.276;6.390;2022-09-11T12:57:00;13.98;;;7.32;;
20997;SDS011;10657;51.276;6.390;2022-09-11T12:59:30;17.63;;;9.20;;
20997;SDS011;10657;51.276;6.390;2022-09-11T13:01:57;19.92;;;11.27;;
20997;SDS011;10657;51.276;6.390;2022-09-11T13:04:26;21.92;;;13.55;;
20997;SDS011;10657;51.276;6.390;2022-09-11T13:07:03;12.63;;;7.75;;
20997;SDS011;10657;51.276;6.390;2022-09-11T13:09:31;21.70;;;12.93;;
20997;SDS011;10657;51.276;6.390;2022-09-11T13:17:21;22.20;;;13.68;;
20997;SDS011;10657;51.276;6.390;2022-09-11T13:19:52;22.20;;;12.40;;
20997;SDS011;10657;51.276;6.390;2022-09-11T13:22:26;11.05;;;7.00;;
20997;SDS011;10657;51.276;6.390;2022-09-11T13:25:08;9.02;;;5.25;;
20997;SDS011;10657;51.276;6.390;2022-09-11T13:27:37;7.72;;;4.40;;
20997;SDS011;10657;51.276;6.390;2022-09-11T13:30:05;8.60;;;5.15;;
20997;SDS011;10657;51.276;6.390;2022-09-11T13:32:33;7.45;;;4.32;;
20997;SDS011;10657;51.276;6.390;2022-09-11T13:35:04;19.13;;;11.38;;
20997;SDS011;10657;51.276;6.390;2022-09-11T13:40:03;17.85;;;10.68;;
20997;SDS011;10657;51.276;6.390;2022-09-11T13:42:31;15.65;;;8.63;;
20997;SDS011;10657;51.276;6.390;2022-09-11T13:44:58;17.02;;;11.18;;
20997;SDS011;10657;51.276;6.390;2022-09-11T13:47:27;17.50;;;11.40;;
20997;SDS011;10657;51.276;6.390;2022-09-11T13:49:57;21.70;;;12.32;;
20997;SDS011;10657;51.276;6.390;2022-09-11T13:52:25;20.42;;;12.00;;
20997;SDS011;10657;51.276;6.390;2022-09-11T13:54:55;10.18;;;4.70;;
20997;SDS011;10657;51.276;6.390;2022-09-11T13:57:24;9.80;;;5.35;;
20997;SDS011;10657;51.276;6.390;2022-09-11T13:59:53;18.20;;;11.10;;
20997;SDS011;10657;51.276;6.390;2022-09-11T14:07:33;15.00;;;9.80;;
20997;SDS011;10657;51.276;6.390;2022-09-11T14:10:02;17.17;;;9.77;;
20997;SDS011;10657;51.276;6.390;2022-09-11T14:12:31;9.50;;;5.68;;
20997;SDS011;10657;51.276;6.390;2022-09-11T14:15:01;14.02;;;8.77;;
20997;SDS011;10657;51.276;6.390;2022-09-11T14:17:29;13.32;;;6.72;;
20997;SDS011;10657;51.276;6.390;2022-09-11T14:19:57;14.05;;;8.82;;
20997;SDS011;10657;51.276;6.390;2022-09-11T14:22:27;13.23;;;7.20;;
20997;SDS011;10657;51.276;6.390;2022-09-11T14:25:01;12.52;;;7.45;;
20997;SDS011;10657;51.276;6.390;2022-09-11T14:29:56;10.43;;;6.15;;
20997;SDS011;10657;51.276;6.390;2022-09-11T14:32:33;9.40;;;5.10;;
20997;SDS011;10657;51.276;6.390;2022-09-11T14:35:05;12.73;;;6.45;;
20997;SDS011;10657;51.276;6.390;2022-09-11T14:37:34;11.25;;;6.50;;
20997;SDS011;10657;51.276;6.390;2022-09-11T14:40:14;6.90;;;3.70;;
20997;SDS011;10657;51.276;6.390;2022-09-11T14:42:42;10.43;;;5.85;;
20997;SDS011;10657;51.276;6.390;2022-09-11T14:45:16;13.20;;;7.68;;
20997;SDS011;10657;51.276;6.390;2022-09-11T14:47:43;11.75;;;6.68;;
20997;SDS011;10657;51.276;6.390;2022-09-11T14:50:12;11.68;;;6.88;;
20997;SDS011;10657;51.276;6.390;2022-09-11T14:52:40;13.52;;;8.00;;
20997;SDS011;10657;51.276;6.390;2022-09-11T14:55:17;11.85;;;6.00;;
20997;SDS011;10657;51.276;6.390;2022-09-11T14:57:45;6.80;;;3.70;;
20997;SDS011;10657;51.276;6.390;2022-09-11T15:00:13;12.50;;;7.50;;
20997;SDS011;10657;51.276;6.390;2022-09-11T15:02:40;11.73;;;6.75;;
20997;SDS011;10657;51.276;6.390;2022-09-11T15:05:09;8.05;;;4.90;;
20997;SDS011;10657;51.276;6.390;2022-09-11T15:07:41;11.25;;;6.85;;
20997;SDS011;10657;51.276;6.390;2022-09-11T15:10:11;12.57;;;7.00;;
20997;SDS011;10657;51.276;6.390;2022-09-11T15:12:38;6.55;;;3.50;;
20997;SDS011;10657;51.276;6.390;2022-09-11T15:15:05;12.23;;;7.68;;
20997;SDS011;10657;51.276;6.390;2022-09-11T15:17:32;10.82;;;5.97;;
20997;SDS011;10657;51.276;6.390;2022-09-11T15:20:04;11.57;;;6.80;;
20997;SDS011;10657;51.276;6.390;2022-09-11T15:22:34;13.23;;;8.15;;
20997;SDS011;10657;51.276;6.390;2022-09-11T15:25:01;10.93;;;6.07;;
20997;SDS011;10657;51.276;6.390;2022-09-11T15:27:28;8.13;;;4.55;;
20997;SDS011;10657;51.276;6.390;2022-09-11T15:29:56;15.43;;;8.02;;
20997;SDS011;10657;51.276;6.390;2022-09-11T15:32:23;14.38;;;9.23;;
20997;SDS011;10657;51.276;6.390;2022-09-11T15:34:50;9.02;;;4.75;;
20997;SDS011;10657;51.276;6.390;2022-09-11T15:37:19;11.75;;;6.90;;
20997;SDS011;10657;51.276;6.390;2022-09-11T15:39:46;7.95;;;4.45;;
20997;SDS011;10657;51.276;6.390;2022-09-11T15:42:15;7.82;;;3.80;;
20997;SDS011;10657;51.276;6.390;2022-09-11T15:44:42;8.27;;;5.05;;
20997;SDS011;10657;51.276;6.390;2022-09-11T15:47:10;8.75;;;5.28;;
20997;SDS011;10657;51.276;6.390;2022-09-11T15:49:39;8.13;;;4.57;;
20997;SDS011;10657;51.276;6.390;2022-09-11T15:52:06;10.45;;;5.85;;
20997;SDS011;10657;51.276;6.390;2022-09-11T15:54:33;11.30;;;6.75;;
20997;SDS011;10657;51.276;6.390;2022-09-11T15:57:01;8.55;;;3.63;;
20997;SDS011;10657;51.276;6.390;2022-09-11T15:59:28;10.48;;;6.10;;
20997;SDS011;10657;51.276;6.390;2022-09-11T16:01:55;12.60;;;7.28;;
20997;SDS011;10657;51.276;6.390;2022-09-11T16:04:24;14.05;;;7.07;;
20997;SDS011;10657;51.276;6.390;2022-09-11T16:06:52;10.25;;;5.72;;
20997;SDS011;10657;51.276;6.390;2022-09-11T16:09:20;10.15;;;5.97;;
20997;SDS011;10657;51.276;6.390;2022-09-11T16:11:48;9.70;;;5.25;;
20997;SDS011;10657;51.276;6.390;2022-09-11T16:14:25;10.45;;;4.95;;
20997;SDS011;10657;51.276;6.390;2022-09-11T16:16:53;7.07;;;4.28;;
20997;SDS011;10657;51.276;6.390;2022-09-11T16:19:23;5.50;;;3.17;;
20997;SDS011;10657;51.276;6.390;2022-09-11T16:21:54;6.40;;;3.75;;
20997;SDS011;10657;51.276;6.390;2022-09-11T16:24:22;11.43;;;6.45;;
20997;SDS011;10657;51.276;6.390;2022-09-11T16:26:50;9.07;;;5.00;;
20997;SDS011;10657;51.276;6.390;2022-09-11T16:29:21;14.40;;;5.55;;
20997;SDS011;10657;51.276;6.390;2022-09-11T16:31:48;10.13;;;5.38;;
20997;SDS011;10657;51.276;6.390;2022-09-11T16:34:15;8.50;;;5.25;;
20997;SDS011;10657;51.276;6.390;2022-09-11T16:36:43;10.73;;;5.43;;
20997;SDS011;10657;51.276;6.390;2022-09-11T16:39:11;9.93;;;5.22;;
20997;SDS011;10657;51.276;6.390;2022-09-11T16:41:39;11.60;;;6.22;;
20997;SDS011;10657;51.276;6.390;2022-09-11T16:44:07;10.15;;;5.45;;
20997;SDS011;10657;51.276;6.390;2022-09-11T16:46:34;8.75;;;5.28;;
20997;SDS011;10657;51.276;6.390;2022-09-11T16:49:02;10.90;;;5.15;;